UKBBUUOO

Guest
Details From UKBB - Boryspil
To UUOO - Chertovitskoye
Flight Number -
Tags Generated
Created
Modified
Stats Distance 326 nm / 604 km
Max Altitude 0 ft / 0 m
Waypoints 3
Social Downloads 0
Likes 0
Share VATSIM

Download

Looking for another format? Having issues loading an existing format? Contact us
Advertisement - Login to hide

Notes

Generated

Route

UKBB WR UUOO

ID Type Via Altitude Latitude Longitude Leg Dist Tot Dist Heading (true) Name
O UKBB APT - 0 ft / 0 m 50.36056˚ 30.90660˚ - 0 nm - -
WR NDB - 0 ft / 0 m 51.84500˚ 39.17667˚ 324 nm 324 nm 71° / 77° VORONEZH NDB
O UUOO APT - 0 ft / 0 m 51.82095˚ 39.21699˚ 2 nm 326 nm 134° / 134° -

Altitude Profile

Advertisement - Login to hide

Weather


0- 5 10 15 20 25 30 35+ Temperature / ° C

Clouds and Precipitation
Forecast for 2018-05-24 06:00 UTC. Updated 4 hours ago

Ground ~20,000 ft ~40,000 ft Winds

UKBB

Details ICAO UKBB (KBP)
Name Boryspil
Region Ukraine
Timezone Europe/Kiev (UTC+3.0)
Stats Elevation 421 ft / 128 m (AMSL)
Location 50.339472° 30.892903°
Runways 2
Magnetic Variation 7.720° E

METAR

UKBB 240830Z 01003MPS 300V050 CAVOK 25/08 Q1019 R88/D NOSIG

Decode

TAF

TAF UKBB 240501Z 2406/2506 02004G09MPS 9999 BKN030 TX27/2412Z TN09/2502Z TEMPO 2409/2421 2100 -SHRA BKN012 SCT025CB PROB40 TEMPO 2411/2418 VRB11G17MPS 1000 TSRA BKN007 BKN015CB TEMPO 2421/2505 2000 BR BKN006

Decode

Departure Runways

ID Width Length Bearing (true) Bearing (mag) Surface Threshold Offset Overrun Length
18L 197 ft / 60 m 13,152 ft / 4,009 m 182.72° 175.00° Concrete 0 ft / 0 m 295 ft / 90 m
18R 207 ft / 63 m 11,470 ft / 3,496 m 182.62° 174.90° Concrete 0 ft / 0 m 164 ft / 50 m
36L 207 ft / 63 m 11,470 ft / 3,496 m 2.62° 354.90° Concrete 0 ft / 0 m 164 ft / 50 m
36R 197 ft / 60 m 13,152 ft / 4,009 m 2.72° 355.00° Concrete 0 ft / 0 m 295 ft / 90 m

UUOO

Details ICAO UUOO (VOZ)
Name CHERTOVITSKOYE
Region Russia
Timezone Europe/Moscow (UTC+3.0)
Stats Elevation 514 ft / 157 m (AMSL)
Location 51.814211° 39.229588°
Runways 1
Magnetic Variation 9.788° E

METAR

UUOO 240830Z 02005MPS 9999 SCT050CB 22/13 Q1015 R30/090070 NOSIG RMK QFE748

Decode

TAF

Not found

Destination Runways

ID Width Length Bearing (true) Bearing (mag) Surface Threshold Offset Overrun Length
13 161 ft / 49 m 7,516 ft / 2,291 m 130.86° 121.07° Concrete 230 ft / 70 m 0 ft / 0 m
31 161 ft / 49 m 7,516 ft / 2,291 m 310.88° 301.09° Concrete 203 ft / 62 m 0 ft / 0 m

Approach Navaids

Runway Type Ident Frequency Range Bearing (true) Bearing (mag) Slope Elevation
13 Localiser IWR 110.50 MHz 18 nm / 33 km 129.47° 119.68° - 514 ft / 157 m (AMSL)
13 Glidescope IWR 110.50 MHz 10 nm / 19 km 130.88° 121.09° 2.70° 514 ft / 157 m (AMSL)
31 Localiser IAP 111.90 MHz 18 nm / 33 km 311.64° 301.85° - 514 ft / 157 m (AMSL)
31 Glidescope IAP 111.90 MHz 10 nm / 19 km 310.88° 301.09° 2.70° 514 ft / 157 m (AMSL)

Popular Alternatives